createdAt,value
2023-04-27T00:00:38.216Z,549.00
2023-04-27T00:01:38.222Z,553.00
2023-04-27T00:02:38.499Z,549.00
2023-04-27T00:03:38.526Z,549.00
2023-04-27T00:04:39.011Z,547.00
2023-04-27T00:05:38.630Z,544.00
2023-04-27T00:06:38.471Z,543.00
2023-04-27T00:07:38.477Z,546.00
2023-04-27T00:08:38.562Z,546.00
2023-04-27T00:09:38.549Z,543.00
2023-04-27T00:10:38.600Z,544.00
2023-04-27T00:11:38.654Z,546.00
2023-04-27T00:12:38.706Z,549.00
2023-04-27T00:13:38.833Z,545.00
2023-04-27T00:14:38.822Z,543.00
2023-04-27T00:15:38.828Z,544.00
2023-04-27T00:16:38.856Z,541.00
2023-04-27T00:17:38.962Z,546.00
2023-04-27T00:18:38.963Z,546.00
2023-04-27T00:19:38.980Z,540.00
2023-04-27T00:20:39.035Z,543.00
2023-04-27T00:21:39.074Z,545.00
2023-04-27T00:22:39.147Z,544.00
2023-04-27T00:23:39.268Z,543.00
2023-04-27T00:24:39.220Z,540.00
2023-04-27T00:25:39.292Z,542.00
2023-04-27T00:26:40.068Z,538.00
2023-04-27T00:27:39.392Z,541.00
2023-04-27T00:28:39.402Z,544.00
2023-04-27T00:29:39.400Z,540.00
2023-04-27T00:30:39.407Z,537.00
2023-04-27T00:31:39.596Z,537.00
2023-04-27T00:32:39.493Z,540.00
2023-04-27T00:33:39.448Z,538.00
2023-04-27T00:34:39.441Z,539.00
2023-04-27T00:35:39.541Z,540.00
2023-04-27T00:36:39.417Z,536.00
2023-04-27T00:37:39.421Z,539.00
2023-04-27T00:38:39.424Z,538.00
2023-04-27T00:39:39.477Z,539.00
2023-04-27T00:40:39.544Z,537.00
2023-04-27T00:41:39.530Z,538.00
2023-04-27T00:42:39.525Z,538.00
2023-04-27T00:43:39.558Z,541.00
2023-04-27T00:44:40.141Z,536.00
2023-04-27T00:45:39.596Z,541.00
2023-04-27T00:46:39.564Z,536.00
2023-04-27T00:47:39.667Z,537.00
2023-04-27T00:48:39.567Z,534.00
2023-04-27T00:49:39.541Z,537.00
2023-04-27T00:50:39.633Z,538.00
2023-04-27T00:51:39.578Z,535.00
2023-04-27T00:52:39.579Z,537.00
2023-04-27T00:53:39.575Z,541.00
2023-04-27T00:54:39.570Z,537.00
2023-04-27T00:55:39.633Z,536.00
2023-04-27T00:56:39.650Z,533.00
2023-04-27T00:57:39.648Z,539.00
2023-04-27T00:58:39.744Z,534.00
2023-04-27T00:59:39.727Z,536.00
2023-04-27T01:00:39.730Z,534.00
2023-04-27T01:01:39.705Z,536.00
2023-04-27T01:02:39.823Z,533.00
2023-04-27T01:03:39.949Z,533.00
2023-04-27T01:04:39.716Z,534.00
2023-04-27T01:05:39.682Z,532.00
2023-04-27T01:06:39.689Z,532.00
2023-04-27T01:07:39.723Z,536.00
2023-04-27T01:08:39.698Z,531.00
2023-04-27T01:09:39.725Z,534.00
2023-04-27T01:10:39.741Z,532.00
2023-04-27T01:11:39.693Z,532.00
2023-04-27T01:12:39.704Z,535.00
2023-04-27T01:13:39.719Z,533.00
2023-04-27T01:14:39.679Z,534.00
2023-04-27T01:15:39.729Z,531.00
2023-04-27T01:16:39.778Z,529.00
2023-04-27T01:17:39.783Z,529.00
2023-04-27T01:18:39.707Z,533.00
2023-04-27T01:19:39.712Z,530.00
2023-04-27T01:20:39.760Z,531.00
2023-04-27T01:21:39.716Z,530.00
2023-04-27T01:22:39.761Z,530.00
2023-04-27T01:23:39.737Z,529.00
2023-04-27T01:24:39.722Z,531.00
2023-04-27T01:25:39.719Z,531.00
2023-04-27T01:26:39.746Z,533.00
2023-04-27T01:27:39.704Z,530.00
2023-04-27T01:28:39.718Z,529.00
2023-04-27T01:29:39.735Z,532.00
2023-04-27T01:30:39.701Z,531.00
2023-04-27T01:31:39.762Z,530.00
2023-04-27T01:32:39.708Z,532.00
2023-04-27T01:33:39.668Z,531.00
2023-04-27T01:34:39.688Z,530.00
2023-04-27T01:35:39.701Z,530.00
2023-04-27T01:36:39.662Z,528.00
2023-04-27T01:37:39.677Z,528.00
2023-04-27T01:38:39.695Z,529.00
2023-04-27T01:39:39.716Z,525.00
2023-04-27T01:40:39.630Z,528.00
2023-04-27T01:41:39.621Z,528.00
2023-04-27T01:42:39.662Z,527.00
2023-04-27T01:43:39.645Z,525.00
2023-04-27T01:44:39.628Z,523.00
2023-04-27T01:45:39.645Z,528.00
2023-04-27T01:46:39.702Z,526.00
2023-04-27T01:47:39.648Z,526.00
2023-04-27T01:48:39.662Z,522.00
2023-04-27T01:49:39.602Z,521.00
2023-04-27T01:50:39.603Z,525.00
2023-04-27T01:51:39.600Z,524.00
2023-04-27T01:52:39.578Z,522.00
2023-04-27T01:53:39.593Z,528.00
2023-04-27T01:54:39.648Z,520.00
2023-04-27T01:55:39.616Z,525.00
2023-04-27T01:56:39.620Z,524.00
2023-04-27T01:57:39.582Z,525.00
2023-04-27T01:58:39.585Z,524.00
2023-04-27T01:59:39.596Z,528.00
2023-04-27T02:00:39.568Z,520.00
2023-04-27T02:01:39.646Z,522.00
2023-04-27T02:02:39.743Z,520.00
2023-04-27T02:03:39.712Z,523.00
2023-04-27T02:04:39.648Z,522.00
2023-04-27T02:05:39.580Z,521.00
2023-04-27T02:06:39.557Z,519.00
2023-04-27T02:07:39.597Z,521.00
2023-04-27T02:08:39.572Z,525.00
2023-04-27T02:09:39.554Z,526.00
2023-04-27T02:10:39.548Z,519.00
2023-04-27T02:11:39.541Z,517.00
2023-04-27T02:12:39.529Z,517.00
2023-04-27T02:13:39.548Z,520.00
2023-04-27T02:14:39.545Z,521.00
2023-04-27T02:15:39.543Z,519.00
2023-04-27T02:16:39.545Z,520.00
2023-04-27T02:17:39.631Z,521.00
2023-04-27T02:18:39.567Z,520.00
2023-04-27T02:19:39.623Z,517.00
2023-04-27T02:20:39.540Z,521.00
2023-04-27T02:21:39.588Z,519.00
2023-04-27T02:22:39.562Z,519.00
2023-04-27T02:23:39.531Z,521.00
2023-04-27T02:24:39.526Z,517.00
2023-04-27T02:25:39.560Z,519.00
2023-04-27T02:26:39.548Z,519.00
2023-04-27T02:27:39.565Z,520.00
2023-04-27T02:28:39.541Z,519.00
2023-04-27T02:29:39.532Z,519.00
2023-04-27T02:30:39.541Z,519.00
2023-04-27T02:31:39.577Z,515.00
2023-04-27T02:32:39.552Z,518.00
2023-04-27T02:33:39.526Z,522.00
2023-04-27T02:34:39.580Z,521.00
2023-04-27T02:35:39.585Z,513.00
2023-04-27T02:36:39.540Z,516.00
2023-04-27T02:37:39.530Z,519.00
2023-04-27T02:38:39.522Z,518.00
2023-04-27T02:39:39.544Z,516.00
2023-04-27T02:40:39.612Z,514.00
2023-04-27T02:41:39.553Z,517.00
2023-04-27T02:42:39.556Z,515.00
2023-04-27T02:43:39.578Z,512.00
2023-04-27T02:44:39.553Z,515.00
2023-04-27T02:45:39.608Z,515.00
2023-04-27T02:46:39.582Z,512.00
2023-04-27T02:47:39.594Z,519.00
2023-04-27T02:48:39.565Z,512.00
2023-04-27T02:49:39.576Z,510.00
2023-04-27T02:50:39.573Z,514.00
2023-04-27T02:51:39.658Z,517.00
2023-04-27T02:52:39.602Z,512.00
2023-04-27T02:53:39.596Z,515.00
2023-04-27T02:54:39.601Z,515.00
2023-04-27T02:55:39.620Z,516.00
2023-04-27T02:56:39.591Z,510.00
2023-04-27T02:57:39.600Z,511.00
2023-04-27T02:58:39.604Z,511.00
2023-04-27T02:59:39.648Z,513.00
2023-04-27T03:00:39.578Z,512.00
2023-04-27T03:01:39.640Z,512.00
2023-04-27T03:02:39.700Z,516.00
2023-04-27T03:03:39.681Z,513.00
2023-04-27T03:04:39.684Z,515.00
2023-04-27T03:05:39.584Z,509.00
2023-04-27T03:06:39.593Z,512.00
2023-04-27T03:07:39.596Z,515.00
2023-04-27T03:08:39.553Z,509.00
2023-04-27T03:09:39.555Z,513.00
2023-04-27T03:10:39.581Z,512.00
2023-04-27T03:11:39.562Z,514.00
2023-04-27T03:12:39.597Z,512.00
2023-04-27T03:13:39.597Z,512.00
2023-04-27T03:14:39.592Z,510.00
2023-04-27T03:15:39.622Z,510.00
2023-04-27T03:16:39.637Z,508.00
2023-04-27T03:17:39.669Z,512.00
2023-04-27T03:18:39.645Z,509.00
2023-04-27T03:19:39.650Z,507.00
2023-04-27T03:20:39.668Z,511.00
2023-04-27T03:21:39.657Z,506.00
2023-04-27T03:22:39.707Z,505.00
2023-04-27T03:23:39.683Z,512.00
2023-04-27T03:24:39.688Z,509.00
2023-04-27T03:25:40.139Z,513.00
2023-04-27T03:26:39.649Z,511.00
2023-04-27T03:27:39.672Z,507.00
2023-04-27T03:28:39.706Z,504.00
2023-04-27T03:29:39.674Z,507.00
2023-04-27T03:30:39.666Z,503.00
2023-04-27T03:31:39.690Z,506.00
2023-04-27T03:32:39.694Z,507.00
2023-04-27T03:33:39.694Z,503.00
2023-04-27T03:34:39.694Z,503.00
2023-04-27T03:35:39.716Z,501.00
2023-04-27T03:36:39.695Z,506.00
2023-04-27T03:37:39.732Z,506.00
2023-04-27T03:38:39.731Z,510.00
2023-04-27T03:39:39.743Z,507.00
2023-04-27T03:40:39.760Z,512.00
2023-04-27T03:41:39.762Z,504.00
2023-04-27T03:42:39.784Z,507.00
2023-04-27T03:43:39.789Z,506.00
2023-04-27T03:44:39.785Z,504.00
2023-04-27T03:45:39.819Z,507.00
2023-04-27T03:46:39.818Z,502.00
2023-04-27T03:47:39.885Z,507.00
2023-04-27T03:48:39.805Z,504.00
2023-04-27T03:49:39.821Z,503.00
2023-04-27T03:50:39.873Z,507.00
2023-04-27T03:51:39.872Z,508.00
2023-04-27T03:52:39.872Z,508.00
2023-04-27T03:53:39.867Z,504.00
2023-04-27T03:54:39.848Z,509.00
2023-04-27T03:55:39.890Z,507.00
2023-04-27T03:56:39.901Z,505.00
2023-04-27T03:57:39.888Z,506.00
2023-04-27T03:58:39.903Z,507.00
2023-04-27T03:59:39.892Z,504.00
2023-04-27T04:00:39.898Z,505.00
2023-04-27T04:01:39.975Z,504.00
2023-04-27T04:02:40.043Z,510.00
2023-04-27T04:03:40.072Z,504.00
2023-04-27T04:04:40.211Z,506.00
2023-04-27T04:05:39.942Z,505.00
2023-04-27T04:06:39.942Z,501.00
2023-04-27T04:07:39.984Z,501.00
2023-04-27T04:08:40.013Z,503.00
2023-04-27T04:09:40.060Z,501.00
2023-04-27T04:10:40.165Z,503.00
2023-04-27T04:11:40.062Z,504.00
2023-04-27T04:12:40.064Z,505.00
2023-04-27T04:13:40.051Z,504.00
2023-04-27T04:14:40.024Z,503.00
2023-04-27T04:15:40.119Z,506.00
2023-04-27T04:16:40.072Z,507.00
2023-04-27T04:17:40.103Z,504.00
2023-04-27T04:18:40.074Z,504.00
2023-04-27T04:19:40.116Z,507.00
2023-04-27T04:20:40.166Z,510.00
2023-04-27T04:21:40.118Z,508.00
2023-04-27T04:22:40.130Z,507.00
2023-04-27T04:23:40.133Z,504.00
2023-04-27T04:24:40.201Z,506.00
2023-04-27T04:25:40.159Z,503.00
2023-04-27T04:26:40.185Z,505.00
2023-04-27T04:27:40.180Z,510.00
2023-04-27T04:28:40.168Z,502.00
2023-04-27T04:29:40.236Z,506.00
2023-04-27T04:30:40.202Z,504.00
2023-04-27T04:31:40.211Z,502.00
2023-04-27T04:32:40.220Z,503.00
2023-04-27T04:33:40.243Z,502.00
2023-04-27T04:34:40.259Z,505.00
2023-04-27T04:35:40.253Z,503.00
2023-04-27T04:36:40.270Z,500.00
2023-04-27T04:37:40.272Z,505.00
2023-04-27T04:38:40.301Z,502.00
2023-04-27T04:39:40.326Z,507.00
2023-04-27T04:40:40.337Z,504.00
2023-04-27T04:41:40.328Z,503.00
2023-04-27T04:42:40.355Z,505.00
2023-04-27T04:43:40.328Z,504.00
2023-04-27T04:44:40.330Z,501.00
2023-04-27T04:45:40.349Z,506.00
2023-04-27T04:46:40.486Z,503.00
2023-04-27T04:47:40.421Z,502.00
2023-04-27T04:48:40.397Z,503.00
2023-04-27T04:49:40.436Z,504.00
2023-04-27T04:50:40.446Z,505.00
2023-04-27T04:51:40.439Z,502.00
2023-04-27T04:52:40.450Z,505.00
2023-04-27T04:53:40.483Z,500.00
2023-04-27T04:54:40.475Z,500.00
2023-04-27T04:55:40.678Z,500.00
2023-04-27T04:56:40.576Z,501.00
2023-04-27T04:57:40.601Z,508.00
2023-04-27T04:58:40.604Z,500.00
2023-04-27T04:59:40.699Z,500.00
2023-04-27T05:00:41.149Z,505.00
2023-04-27T05:01:40.705Z,500.00
2023-04-27T05:02:40.893Z,505.00
2023-04-27T05:03:40.885Z,503.00
2023-04-27T05:04:40.876Z,508.00
2023-04-27T05:05:41.145Z,507.00
2023-04-27T05:06:40.807Z,504.00
2023-04-27T05:07:40.852Z,509.00
2023-04-27T05:08:40.899Z,505.00
2023-04-27T05:09:40.930Z,520.00
2023-04-27T05:10:41.152Z,518.00
2023-04-27T05:11:41.034Z,529.00
2023-04-27T05:12:41.083Z,526.00
2023-04-27T05:13:41.121Z,522.00
2023-04-27T05:14:41.109Z,530.00
2023-04-27T05:15:41.138Z,537.00
2023-04-27T05:16:41.216Z,546.00
2023-04-27T05:17:41.262Z,554.00
2023-04-27T05:18:41.246Z,526.00
2023-04-27T05:19:41.298Z,551.00
2023-04-27T05:20:41.292Z,535.00
2023-04-27T05:21:41.321Z,535.00
2023-04-27T05:22:41.385Z,535.00
2023-04-27T05:23:41.325Z,521.00
2023-04-27T05:24:41.351Z,514.00
2023-04-27T05:25:41.429Z,511.00
2023-04-27T05:26:41.403Z,524.00
2023-04-27T05:27:41.422Z,522.00
2023-04-27T05:28:41.425Z,543.00
2023-04-27T05:29:41.473Z,557.00
2023-04-27T05:30:41.448Z,564.00
2023-04-27T05:31:41.503Z,548.00
2023-04-27T05:32:41.487Z,535.00
2023-04-27T05:33:41.497Z,536.00
2023-04-27T05:34:41.507Z,519.00
2023-04-27T05:35:41.632Z,511.00
2023-04-27T05:36:41.441Z,504.00
2023-04-27T05:37:42.185Z,500.00
2023-04-27T05:38:41.497Z,500.00
2023-04-27T05:39:41.519Z,507.00
2023-04-27T05:40:42.713Z,500.00
2023-04-27T05:41:41.481Z,500.00
2023-04-27T05:42:41.528Z,504.00
2023-04-27T05:43:41.670Z,500.00
2023-04-27T05:44:42.191Z,505.00
2023-04-27T05:45:41.548Z,503.00
2023-04-27T05:46:41.582Z,511.00
2023-04-27T05:47:41.585Z,505.00
2023-04-27T05:48:41.614Z,532.00
2023-04-27T05:49:41.626Z,529.00
2023-04-27T05:50:41.692Z,558.00
2023-04-27T05:51:41.682Z,575.00
2023-04-27T05:52:41.666Z,580.00
2023-04-27T05:53:41.672Z,586.00
2023-04-27T05:54:41.675Z,609.00
2023-04-27T05:55:41.712Z,647.00
2023-04-27T05:56:41.656Z,653.00
2023-04-27T05:57:41.668Z,703.00
2023-04-27T05:58:41.749Z,697.00
2023-04-27T05:59:41.655Z,735.00
2023-04-27T06:00:41.680Z,748.00
2023-04-27T06:01:41.647Z,733.00
2023-04-27T06:02:41.853Z,776.00
2023-04-27T06:03:41.769Z,683.00
2023-04-27T06:04:41.840Z,698.00
2023-04-27T06:05:41.967Z,667.00
2023-04-27T06:06:41.830Z,721.00
2023-04-27T06:07:41.905Z,647.00
2023-04-27T06:08:41.953Z,621.00
2023-04-27T06:09:42.025Z,649.00
2023-04-27T06:10:42.135Z,648.00
2023-04-27T06:11:42.134Z,634.00
2023-04-27T06:12:42.743Z,642.00
2023-04-27T06:13:42.252Z,636.00
2023-04-27T06:14:42.285Z,694.00
2023-04-27T06:15:42.390Z,666.00
2023-04-27T06:16:42.405Z,719.00
2023-04-27T06:17:42.560Z,641.00
2023-04-27T06:18:42.465Z,712.00
2023-04-27T06:19:42.534Z,672.00
2023-04-27T06:20:43.236Z,656.00
2023-04-27T06:21:42.591Z,633.00
2023-04-27T06:22:42.623Z,631.00
2023-04-27T06:23:42.659Z,631.00
2023-04-27T06:24:42.748Z,615.00
2023-04-27T06:25:42.724Z,616.00
2023-04-27T06:26:42.754Z,614.00
2023-04-27T06:27:42.802Z,611.00
2023-04-27T06:28:42.805Z,616.00
2023-04-27T06:29:42.884Z,616.00
2023-04-27T06:30:42.839Z,618.00
2023-04-27T06:31:42.914Z,610.00
2023-04-27T06:32:42.916Z,608.00
2023-04-27T06:33:42.930Z,616.00
2023-04-27T06:34:42.940Z,631.00
2023-04-27T06:35:45.143Z,630.00
2023-04-27T06:36:42.964Z,630.00
2023-04-27T06:37:42.934Z,635.00
2023-04-27T06:38:42.941Z,621.00
2023-04-27T06:39:42.912Z,630.00
2023-04-27T06:40:43.205Z,633.00
2023-04-27T06:41:42.908Z,646.00
2023-04-27T06:42:42.894Z,627.00
2023-04-27T06:43:42.879Z,624.00
2023-04-27T06:44:42.887Z,618.00
2023-04-27T06:45:43.057Z,621.00
2023-04-27T06:46:42.897Z,642.00
2023-04-27T06:47:42.864Z,617.00
2023-04-27T06:48:42.917Z,634.00
2023-04-27T06:49:42.868Z,630.00
2023-04-27T06:50:43.261Z,652.00
2023-04-27T06:51:42.876Z,625.00
2023-04-27T06:52:42.859Z,639.00
2023-04-27T06:53:42.853Z,634.00
2023-04-27T06:54:42.814Z,702.00
2023-04-27T06:55:44.969Z,655.00
2023-04-27T06:56:42.809Z,655.00
2023-04-27T06:57:42.835Z,659.00
2023-04-27T06:58:42.873Z,669.00
2023-04-27T06:59:42.789Z,674.00
2023-04-27T07:00:43.215Z,721.00
2023-04-27T07:01:42.785Z,647.00
2023-04-27T07:02:42.852Z,658.00
2023-04-27T07:03:43.040Z,684.00
2023-04-27T07:04:42.805Z,666.00
2023-04-27T07:05:42.800Z,714.00
2023-04-27T07:06:42.784Z,658.00
2023-04-27T07:07:42.731Z,637.00
2023-04-27T07:08:42.748Z,647.00
2023-04-27T07:09:42.770Z,651.00
2023-04-27T07:10:42.775Z,645.00
2023-04-27T07:11:42.702Z,645.00
2023-04-27T07:12:42.713Z,638.00
2023-04-27T07:13:42.721Z,623.00
2023-04-27T07:14:42.688Z,637.00
2023-04-27T07:15:42.744Z,671.00
2023-04-27T07:16:42.665Z,709.00
2023-04-27T07:17:42.675Z,663.00
2023-04-27T07:18:43.685Z,661.00
2023-04-27T07:19:42.665Z,649.00
2023-04-27T07:20:42.652Z,656.00
2023-04-27T07:21:42.667Z,649.00
2023-04-27T07:22:42.712Z,638.00
2023-04-27T07:23:42.822Z,665.00
2023-04-27T07:24:42.660Z,662.00
2023-04-27T07:25:42.666Z,665.00
2023-04-27T07:26:42.610Z,663.00
2023-04-27T07:27:42.623Z,668.00
2023-04-27T07:28:42.627Z,655.00
2023-04-27T07:29:42.599Z,711.00
2023-04-27T07:30:42.596Z,728.00
2023-04-27T07:31:42.621Z,736.00
2023-04-27T07:32:42.657Z,738.00
2023-04-27T07:33:42.572Z,673.00
2023-04-27T07:34:52.834Z,647.00
2023-04-27T07:35:43.555Z,648.00
2023-04-27T07:36:42.531Z,649.00
2023-04-27T07:37:42.504Z,632.00
2023-04-27T07:38:42.543Z,653.00
2023-04-27T07:39:42.522Z,635.00
2023-04-27T07:40:44.347Z,650.00
2023-04-27T07:41:42.516Z,644.00
2023-04-27T07:42:42.513Z,696.00
2023-04-27T07:43:42.488Z,686.00
2023-04-27T07:44:42.481Z,666.00
2023-04-27T07:45:42.633Z,702.00
2023-04-27T07:46:42.715Z,627.00
2023-04-27T07:47:42.711Z,608.00
2023-04-27T07:48:42.693Z,630.00
2023-04-27T07:49:42.733Z,638.00
2023-04-27T07:50:42.798Z,607.00
2023-04-27T07:51:42.835Z,620.00
2023-04-27T07:52:42.877Z,644.00
2023-04-27T07:53:42.938Z,647.00
2023-04-27T07:54:42.990Z,626.00
2023-04-27T07:55:43.083Z,652.00
2023-04-27T07:56:43.157Z,661.00
2023-04-27T07:57:43.191Z,643.00
2023-04-27T07:58:43.251Z,652.00
2023-04-27T07:59:43.256Z,647.00
2023-04-27T08:00:43.361Z,628.00
2023-04-27T08:01:43.507Z,605.00
2023-04-27T08:02:43.608Z,610.00
2023-04-27T08:03:43.816Z,618.00
2023-04-27T08:04:44.187Z,620.00
2023-04-27T08:05:44.014Z,646.00
2023-04-27T08:06:44.055Z,606.00
2023-04-27T08:07:44.825Z,622.00
2023-04-27T08:08:43.783Z,634.00
2023-04-27T08:09:43.838Z,623.00
2023-04-27T08:10:44.231Z,634.00
2023-04-27T08:11:44.023Z,658.00
2023-04-27T08:12:44.692Z,654.00
2023-04-27T08:13:44.084Z,667.00
2023-04-27T08:14:44.078Z,644.00
2023-04-27T08:15:44.204Z,657.00
2023-04-27T08:16:44.297Z,656.00
2023-04-27T08:17:44.337Z,649.00
2023-04-27T08:18:44.335Z,649.00
2023-04-27T08:19:44.415Z,653.00
2023-04-27T08:20:44.728Z,646.00
2023-04-27T08:21:44.527Z,662.00
2023-04-27T08:22:44.571Z,643.00
2023-04-27T08:23:44.645Z,642.00
2023-04-27T08:24:44.682Z,644.00
2023-04-27T08:25:44.778Z,648.00
2023-04-27T08:26:44.841Z,640.00
2023-04-27T08:27:45.034Z,642.00
2023-04-27T08:28:44.954Z,635.00
2023-04-27T08:29:44.989Z,641.00
2023-04-27T08:30:45.243Z,637.00
2023-04-27T08:31:45.229Z,601.00
2023-04-27T08:32:45.234Z,619.00
2023-04-27T08:33:45.215Z,626.00
2023-04-27T08:34:45.301Z,643.00
2023-04-27T08:35:45.738Z,657.00
2023-04-27T08:36:45.376Z,639.00
2023-04-27T08:37:45.444Z,627.00
2023-04-27T08:38:45.469Z,631.00
2023-04-27T08:39:45.497Z,624.00
2023-04-27T08:40:45.552Z,643.00
2023-04-27T08:41:45.619Z,610.00
2023-04-27T08:42:45.624Z,639.00
2023-04-27T08:43:45.766Z,627.00
2023-04-27T08:44:45.754Z,617.00
2023-04-27T08:45:45.804Z,616.00
2023-04-27T08:46:45.901Z,569.00
2023-04-27T08:47:45.892Z,580.00
2023-04-27T08:48:45.951Z,630.00
2023-04-27T08:49:46.070Z,599.00
2023-04-27T08:50:46.051Z,604.00
2023-04-27T08:51:46.250Z,600.00
2023-04-27T08:52:46.094Z,584.00
2023-04-27T08:53:46.097Z,583.00
2023-04-27T08:54:46.064Z,573.00
2023-04-27T08:55:46.069Z,576.00
2023-04-27T08:56:46.284Z,607.00
2023-04-27T08:57:46.117Z,631.00
2023-04-27T08:58:46.122Z,618.00
2023-04-27T08:59:46.136Z,639.00
2023-04-27T09:00:46.159Z,650.00
2023-04-27T09:01:46.247Z,649.00
2023-04-27T09:02:46.259Z,655.00
2023-04-27T09:03:46.287Z,656.00
2023-04-27T09:04:46.203Z,654.00
2023-04-27T09:05:56.446Z,665.00
2023-04-27T09:06:47.104Z,665.00
2023-04-27T09:07:46.162Z,665.00
2023-04-27T09:08:46.094Z,660.00
2023-04-27T09:09:46.101Z,658.00
2023-04-27T09:10:46.079Z,638.00
2023-04-27T09:11:46.088Z,636.00
2023-04-27T09:12:46.090Z,649.00
2023-04-27T09:13:46.065Z,651.00
2023-04-27T09:14:46.106Z,647.00
2023-04-27T09:15:47.808Z,646.00
2023-04-27T09:16:46.267Z,629.00
2023-04-27T09:17:46.230Z,641.00
2023-04-27T09:18:46.192Z,650.00
2023-04-27T09:19:46.244Z,650.00
2023-04-27T09:20:46.278Z,656.00
2023-04-27T09:21:47.740Z,660.00
2023-04-27T09:22:46.322Z,657.00
2023-04-27T09:23:46.374Z,653.00
2023-04-27T09:24:46.377Z,647.00
2023-04-27T09:25:46.401Z,658.00
2023-04-27T09:26:46.436Z,665.00
2023-04-27T09:27:46.447Z,673.00
2023-04-27T09:28:46.513Z,659.00
2023-04-27T09:29:46.545Z,649.00
2023-04-27T09:30:46.566Z,658.00
2023-04-27T09:31:46.607Z,662.00
2023-04-27T09:32:46.664Z,671.00
2023-04-27T09:33:46.684Z,664.00
2023-04-27T09:34:46.631Z,662.00
2023-04-27T09:35:46.701Z,663.00
2023-04-27T09:36:46.766Z,659.00
2023-04-27T09:37:46.817Z,658.00
2023-04-27T09:38:46.859Z,637.00
2023-04-27T09:39:46.922Z,638.00
2023-04-27T09:40:46.947Z,650.00
2023-04-27T09:41:47.252Z,651.00
2023-04-27T09:42:47.020Z,625.00
2023-04-27T09:43:47.132Z,654.00
2023-04-27T09:44:47.135Z,636.00
2023-04-27T09:45:47.225Z,643.00
2023-04-27T09:46:47.768Z,615.00
2023-04-27T09:47:47.481Z,625.00
2023-04-27T09:48:47.380Z,584.00
2023-04-27T09:49:47.441Z,593.00
2023-04-27T09:50:47.494Z,609.00
2023-04-27T09:51:47.525Z,626.00
2023-04-27T09:52:47.550Z,636.00
2023-04-27T09:53:47.637Z,604.00
2023-04-27T09:54:47.719Z,592.00
2023-04-27T09:55:48.221Z,594.00
2023-04-27T09:56:47.839Z,632.00
2023-04-27T09:57:47.899Z,630.00
2023-04-27T09:58:47.942Z,634.00
2023-04-27T09:59:47.989Z,617.00
2023-04-27T10:00:48.016Z,606.00
2023-04-27T10:01:48.182Z,618.00
2023-04-27T10:02:53.197Z,628.00
2023-04-27T10:03:49.245Z,628.00
2023-04-27T10:04:48.145Z,616.00
2023-04-27T10:05:48.128Z,626.00
2023-04-27T10:06:48.136Z,620.00
2023-04-27T10:07:48.121Z,627.00
2023-04-27T10:08:48.130Z,637.00
2023-04-27T10:09:48.143Z,652.00
2023-04-27T10:10:48.095Z,655.00
2023-04-27T10:11:48.085Z,666.00
2023-04-27T10:12:48.157Z,653.00
2023-04-27T10:13:48.274Z,661.00
2023-04-27T10:14:48.312Z,690.00
2023-04-27T10:15:48.379Z,705.00
2023-04-27T10:16:48.448Z,718.00
2023-04-27T10:17:48.556Z,692.00
2023-04-27T10:18:48.519Z,691.00
2023-04-27T10:19:48.572Z,679.00
2023-04-27T10:20:48.681Z,702.00
2023-04-27T10:21:48.711Z,674.00
2023-04-27T10:22:48.784Z,672.00
2023-04-27T10:23:48.855Z,645.00
2023-04-27T10:24:48.902Z,651.00
2023-04-27T10:25:48.978Z,660.00
2023-04-27T10:26:48.997Z,679.00
2023-04-27T10:27:49.091Z,695.00
2023-04-27T10:28:49.137Z,682.00
2023-04-27T10:29:49.154Z,690.00
2023-04-27T10:30:49.427Z,680.00
2023-04-27T10:31:49.252Z,684.00
2023-04-27T10:32:49.368Z,663.00
2023-04-27T10:33:49.354Z,661.00
2023-04-27T10:34:56.616Z,662.00
2023-04-27T10:35:49.410Z,662.00
2023-04-27T10:36:49.407Z,649.00
2023-04-27T10:37:49.406Z,651.00
2023-04-27T10:38:49.380Z,657.00
2023-04-27T10:39:50.185Z,643.00
2023-04-27T10:40:49.379Z,607.00
2023-04-27T10:41:49.435Z,629.00
2023-04-27T10:42:49.662Z,649.00
2023-04-27T10:43:49.457Z,669.00
2023-04-27T10:44:49.513Z,659.00
2023-04-27T10:45:49.604Z,641.00
2023-04-27T10:46:49.627Z,638.00
2023-04-27T10:47:49.727Z,617.00
2023-04-27T10:48:49.734Z,610.00
2023-04-27T10:49:49.810Z,599.00
2023-04-27T10:50:49.810Z,590.00
2023-04-27T10:51:50.311Z,594.00
2023-04-27T10:52:49.935Z,586.00
2023-04-27T10:53:49.993Z,580.00
2023-04-27T10:54:50.082Z,566.00
2023-04-27T10:55:50.107Z,579.00
2023-04-27T10:56:50.104Z,576.00
2023-04-27T10:57:50.166Z,569.00
2023-04-27T10:58:50.172Z,576.00
2023-04-27T10:59:50.235Z,565.00
2023-04-27T11:00:50.186Z,569.00
2023-04-27T11:01:50.222Z,554.00
2023-04-27T11:02:50.249Z,523.00
2023-04-27T11:03:50.355Z,544.00
2023-04-27T11:04:50.255Z,542.00
2023-04-27T11:05:50.236Z,554.00
2023-04-27T11:06:50.331Z,548.00
2023-04-27T11:07:50.233Z,549.00
2023-04-27T11:08:50.198Z,520.00
2023-04-27T11:09:50.194Z,509.00
2023-04-27T11:10:50.363Z,506.00
2023-04-27T11:11:50.214Z,507.00
2023-04-27T11:12:50.232Z,505.00
2023-04-27T11:13:50.205Z,500.00
2023-04-27T11:14:50.226Z,547.00
2023-04-27T11:15:50.290Z,516.00
2023-04-27T11:16:50.246Z,523.00
2023-04-27T11:17:50.303Z,505.00
2023-04-27T11:18:50.274Z,523.00
2023-04-27T11:19:50.307Z,516.00
2023-04-27T11:20:50.317Z,500.00
2023-04-27T11:21:50.298Z,502.00
2023-04-27T11:22:50.323Z,509.00
2023-04-27T11:23:51.326Z,515.00
2023-04-27T11:24:50.425Z,502.00
2023-04-27T11:25:50.372Z,500.00
2023-04-27T11:26:50.401Z,506.00
2023-04-27T11:27:50.442Z,509.00
2023-04-27T11:28:50.429Z,516.00
2023-04-27T11:29:50.450Z,505.00
2023-04-27T11:30:50.474Z,512.00
2023-04-27T11:31:50.596Z,500.00
2023-04-27T11:32:50.562Z,509.00
2023-04-27T11:33:50.554Z,513.00
2023-04-27T11:34:53.411Z,513.00
2023-04-27T11:35:50.576Z,514.00
2023-04-27T11:36:50.576Z,510.00
2023-04-27T11:37:50.627Z,500.00
2023-04-27T11:38:50.625Z,500.00
2023-04-27T11:39:50.610Z,508.00
2023-04-27T11:40:50.540Z,500.00
2023-04-27T11:41:50.549Z,500.00
2023-04-27T11:42:50.513Z,512.00
2023-04-27T11:43:50.527Z,523.00
2023-04-27T11:44:50.510Z,509.00
2023-04-27T11:45:50.521Z,501.00
2023-04-27T11:46:50.566Z,504.00
2023-04-27T11:47:50.588Z,515.00
2023-04-27T11:48:50.500Z,501.00
2023-04-27T11:49:50.492Z,516.00
2023-04-27T11:50:50.480Z,520.00
2023-04-27T11:51:50.826Z,519.00
2023-04-27T11:52:50.484Z,524.00
2023-04-27T11:53:50.446Z,504.00
2023-04-27T11:54:50.451Z,515.00
2023-04-27T11:55:50.476Z,499.00
2023-04-27T11:56:50.407Z,506.00
2023-04-27T11:57:50.432Z,514.00
2023-04-27T11:58:50.398Z,503.00
2023-04-27T11:59:50.421Z,507.00
2023-04-27T12:00:50.436Z,525.00
2023-04-27T12:01:50.489Z,500.00
2023-04-27T12:02:50.514Z,506.00
2023-04-27T12:03:50.575Z,521.00
2023-04-27T12:04:50.488Z,499.00
2023-04-27T12:05:50.438Z,500.00
2023-04-27T12:06:50.359Z,519.00
2023-04-27T12:07:50.360Z,514.00
2023-04-27T12:08:51.347Z,508.00
2023-04-27T12:09:50.327Z,506.00
2023-04-27T12:10:50.300Z,500.00
2023-04-27T12:11:50.304Z,516.00
2023-04-27T12:12:50.293Z,516.00
2023-04-27T12:13:50.330Z,511.00
2023-04-27T12:14:50.393Z,517.00
2023-04-27T12:15:50.808Z,506.00
2023-04-27T12:16:50.321Z,531.00
2023-04-27T12:17:50.359Z,530.00
2023-04-27T12:18:50.294Z,558.00
2023-04-27T12:19:50.276Z,534.00
2023-04-27T12:20:50.224Z,522.00
2023-04-27T12:21:50.229Z,524.00
2023-04-27T12:22:50.246Z,530.00
2023-04-27T12:23:50.217Z,524.00
2023-04-27T12:24:50.268Z,533.00
2023-04-27T12:25:50.258Z,545.00
2023-04-27T12:26:50.364Z,519.00
2023-04-27T12:27:50.209Z,537.00
2023-04-27T12:28:50.192Z,537.00